createdAt,value
2023-01-13T00:00:20.167Z,98407.59
2023-01-13T00:02:48.187Z,98403.56
2023-01-13T00:05:15.940Z,98407.63
2023-01-13T00:07:43.600Z,98402.38
2023-01-13T00:10:12.508Z,98403.94
2023-01-13T00:12:43.375Z,98408.59
2023-01-13T00:15:13.347Z,98396.88
2023-01-13T00:17:41.165Z,98394.63
2023-01-13T00:20:11.107Z,98388.63
2023-01-13T00:22:39.074Z,98384.59
2023-01-13T00:25:07.174Z,98385.91
2023-01-13T00:27:35.410Z,98386.00
2023-01-13T00:30:05.669Z,98387.50
2023-01-13T00:32:33.372Z,98381.72
2023-01-13T00:35:01.343Z,98377.50
2023-01-13T00:37:29.616Z,98379.78
2023-01-13T00:39:57.964Z,98381.78
2023-01-13T00:42:43.440Z,98375.00
2023-01-13T00:45:12.815Z,98376.69
2023-01-13T00:47:40.481Z,98377.00
2023-01-13T00:50:09.366Z,98371.78
2023-01-13T00:52:37.114Z,98374.19
2023-01-13T00:55:05.406Z,98362.00
2023-01-13T00:57:33.184Z,98350.13
2023-01-13T01:00:00.793Z,98350.34
2023-01-13T01:02:29.816Z,98346.25
2023-01-13T01:04:57.643Z,98343.19
2023-01-13T01:07:25.315Z,98332.91
2023-01-13T01:09:53.047Z,98341.53
2023-01-13T01:12:20.703Z,98335.59
2023-01-13T01:14:48.362Z,98334.59
2023-01-13T01:17:16.109Z,98327.19
2023-01-13T01:19:45.296Z,98336.94
2023-01-13T01:22:12.999Z,98329.34
2023-01-13T01:24:40.690Z,98335.63
2023-01-13T01:27:08.410Z,98339.84
2023-01-13T01:29:38.854Z,98329.78
2023-01-13T01:32:07.191Z,98346.16
2023-01-13T01:34:35.669Z,98344.44
2023-01-13T01:37:04.675Z,98340.09
2023-01-13T01:39:32.650Z,98342.00
2023-01-13T01:42:18.025Z,98342.66
2023-01-13T01:45:00.241Z,98342.13
2023-01-13T01:47:30.506Z,98349.44
2023-01-13T01:49:59.312Z,98340.09
2023-01-13T01:52:34.169Z,98331.06
2023-01-13T01:55:07.204Z,98334.06
2023-01-13T01:57:43.650Z,98336.50
2023-01-13T02:00:13.066Z,98334.97
2023-01-13T02:02:42.864Z,98339.31
2023-01-13T02:05:10.818Z,98335.03
2023-01-13T02:07:46.460Z,98334.81
2023-01-13T02:10:17.235Z,98328.34
2023-01-13T02:12:49.577Z,98332.31
2023-01-13T02:15:21.394Z,98331.44
2023-01-13T02:18:11.163Z,98326.66
2023-01-13T02:20:58.521Z,98322.03
2023-01-13T02:24:22.279Z,98324.84
2023-01-13T02:27:31.288Z,98318.25
2023-01-13T02:30:29.593Z,98313.19
2023-01-13T02:33:09.596Z,98302.78
2023-01-13T02:35:45.099Z,98301.69
2023-01-13T02:38:16.387Z,98307.06
2023-01-13T02:40:55.703Z,98300.78
2023-01-13T02:43:43.011Z,98303.06
2023-01-13T02:46:16.457Z,98295.03
2023-01-13T02:48:46.774Z,98295.53
2023-01-13T02:51:18.377Z,98291.97
2023-01-13T02:53:52.243Z,98299.50
2023-01-13T02:56:22.025Z,98302.06
2023-01-13T02:59:06.332Z,98296.47
2023-01-13T03:01:34.184Z,98293.25
2023-01-13T03:04:12.297Z,98295.81
2023-01-13T03:06:52.220Z,98297.94
2023-01-13T03:09:29.914Z,98294.75
2023-01-13T03:12:16.554Z,98295.41
2023-01-13T03:14:54.367Z,98286.09
2023-01-13T03:17:30.593Z,98279.91
2023-01-13T03:20:05.623Z,98276.47
2023-01-13T03:22:38.137Z,98278.44
2023-01-13T03:25:14.325Z,98285.78
2023-01-13T03:27:50.980Z,98275.47
2023-01-13T03:30:24.154Z,98265.59
2023-01-13T03:32:56.871Z,98262.22
2023-01-13T03:35:28.795Z,98257.34
2023-01-13T03:38:03.774Z,98254.09
2023-01-13T03:40:36.517Z,98248.00
2023-01-13T03:43:26.549Z,98252.22
2023-01-13T03:46:01.403Z,98254.88
2023-01-13T03:48:30.758Z,98244.69
2023-01-13T03:51:06.303Z,98244.63
2023-01-13T03:53:38.637Z,98246.34
2023-01-13T03:56:11.439Z,98243.56
2023-01-13T03:58:43.816Z,98233.47
2023-01-13T04:01:16.969Z,98232.97
2023-01-13T04:03:51.789Z,98241.59
2023-01-13T04:06:25.426Z,98231.69
2023-01-13T04:08:59.713Z,98230.84
2023-01-13T04:11:31.444Z,98224.34
2023-01-13T04:14:01.028Z,98215.91
2023-01-13T04:16:30.500Z,98226.69
2023-01-13T04:18:58.276Z,98220.25
2023-01-13T04:21:26.443Z,98221.06
2023-01-13T04:23:54.229Z,98215.06
2023-01-13T04:26:23.427Z,98214.50
2023-01-13T04:28:52.010Z,98213.97
2023-01-13T04:31:19.834Z,98200.19
2023-01-13T04:33:48.921Z,98208.34
2023-01-13T04:36:16.838Z,98214.03
2023-01-13T04:38:44.552Z,98206.50
2023-01-13T04:41:12.355Z,98209.25
2023-01-13T04:43:40.179Z,98209.78
2023-01-13T04:46:07.946Z,98205.88
2023-01-13T04:48:35.765Z,98205.78
2023-01-13T04:51:05.034Z,98204.56
2023-01-13T04:53:32.775Z,98195.72
2023-01-13T04:56:00.840Z,98193.50
2023-01-13T04:58:28.499Z,98189.22
2023-01-13T05:00:56.539Z,98200.28
2023-01-13T05:03:26.728Z,98211.13
2023-01-13T05:05:54.647Z,98199.97
2023-01-13T05:08:23.759Z,98208.72
2023-01-13T05:10:51.478Z,98207.31
2023-01-13T05:13:36.733Z,98213.09
2023-01-13T05:16:22.841Z,98213.09
2023-01-13T05:18:50.715Z,98208.16
2023-01-13T05:21:35.022Z,98206.44
2023-01-13T05:24:21.755Z,98191.88
2023-01-13T05:26:49.458Z,98199.56
2023-01-13T05:29:17.251Z,98192.81
2023-01-13T05:31:45.009Z,98190.28
2023-01-13T05:34:12.778Z,98187.00
2023-01-13T05:36:40.507Z,98195.63
2023-01-13T05:39:09.548Z,98179.38
2023-01-13T05:41:54.922Z,98186.44
2023-01-13T05:44:22.597Z,98186.13
2023-01-13T05:46:51.101Z,98186.78
2023-01-13T05:49:18.880Z,98182.81
2023-01-13T05:51:46.681Z,98190.38
2023-01-13T05:54:16.022Z,98184.94
2023-01-13T05:56:43.803Z,98192.31
2023-01-13T05:59:11.888Z,98192.09
2023-01-13T06:01:41.377Z,98202.22
2023-01-13T06:04:09.103Z,98186.53
2023-01-13T06:06:36.859Z,98197.97
2023-01-13T06:09:04.769Z,98194.13
2023-01-13T06:11:33.822Z,98191.72
2023-01-13T06:14:01.548Z,98195.72
2023-01-13T06:16:29.463Z,98197.81
2023-01-13T06:18:57.191Z,98200.34
2023-01-13T06:21:25.002Z,98209.25
2023-01-13T06:23:52.976Z,98202.16
2023-01-13T06:26:22.039Z,98196.75
2023-01-13T06:28:51.221Z,98190.22
2023-01-13T06:31:20.118Z,98194.94
2023-01-13T06:33:54.418Z,98199.28
2023-01-13T06:36:26.423Z,98179.16
2023-01-13T06:38:57.929Z,98187.75
2023-01-13T06:41:41.652Z,98185.31
2023-01-13T06:44:12.687Z,98177.31
2023-01-13T06:46:40.602Z,98189.28
2023-01-13T06:49:09.302Z,98187.44
2023-01-13T06:51:37.152Z,98189.03
2023-01-13T06:54:05.370Z,98181.72
2023-01-13T06:56:33.249Z,98181.06
2023-01-13T06:59:01.178Z,98180.59
2023-01-13T07:01:30.446Z,98177.22
2023-01-13T07:03:58.840Z,98170.47
2023-01-13T07:06:26.525Z,98178.41
2023-01-13T07:08:54.188Z,98181.94
2023-01-13T07:11:21.966Z,98203.56
2023-01-13T07:14:07.221Z,98180.03
2023-01-13T07:16:36.368Z,98192.72
2023-01-13T07:19:04.118Z,98187.06
2023-01-13T07:21:31.976Z,98197.91
2023-01-13T07:23:59.671Z,98187.47
2023-01-13T07:26:27.360Z,98196.72
2023-01-13T07:28:55.161Z,98196.59
2023-01-13T07:31:22.971Z,98200.44
2023-01-13T07:33:51.986Z,98207.72
2023-01-13T07:36:19.809Z,98195.34
2023-01-13T07:38:47.593Z,98194.22
2023-01-13T07:41:33.769Z,98193.56
2023-01-13T07:44:05.000Z,98194.13
2023-01-13T07:46:33.347Z,98192.66
2023-01-13T07:49:02.360Z,98192.66
2023-01-13T07:51:30.189Z,98199.41
2023-01-13T07:53:58.039Z,98199.78
2023-01-13T07:56:25.840Z,98196.34
2023-01-13T07:58:53.659Z,98190.19
2023-01-13T08:01:22.277Z,98207.28
2023-01-13T08:03:50.121Z,98203.03
2023-01-13T08:06:19.490Z,98232.63
2023-01-13T08:08:47.227Z,98235.84
2023-01-13T08:11:14.998Z,98268.72
2023-01-13T08:13:42.735Z,98283.44
2023-01-13T08:16:13.099Z,98287.22
2023-01-13T08:18:41.950Z,98299.91
2023-01-13T08:21:11.990Z,98309.56
2023-01-13T08:23:42.231Z,98330.97
2023-01-13T08:26:11.719Z,98329.00
2023-01-13T08:28:41.395Z,98359.34
2023-01-13T08:31:16.184Z,98354.59
2023-01-13T08:33:44.525Z,98371.19
2023-01-13T08:36:18.463Z,98424.50
2023-01-13T08:38:47.648Z,98433.09
2023-01-13T08:41:37.365Z,98420.13
2023-01-13T08:44:06.675Z,98429.06
2023-01-13T08:46:34.663Z,98451.59
2023-01-13T08:49:02.549Z,98447.53
2023-01-13T08:51:30.443Z,98469.97
2023-01-13T08:53:59.566Z,98469.84
2023-01-13T08:56:27.347Z,98462.00
2023-01-13T08:58:58.929Z,98473.63
2023-01-13T09:01:27.741Z,98457.19
2023-01-13T09:03:55.887Z,98458.91
2023-01-13T09:06:23.923Z,98453.31
2023-01-13T09:08:52.116Z,98443.50
2023-01-13T09:11:43.760Z,98446.22
2023-01-13T09:14:11.599Z,98449.47
2023-01-13T09:16:39.587Z,98461.38
2023-01-13T09:19:13.091Z,98473.69
2023-01-13T09:21:40.914Z,98453.72
2023-01-13T09:24:11.513Z,98459.06
2023-01-13T09:26:40.671Z,98449.00
2023-01-13T09:29:08.417Z,98461.47
2023-01-13T09:31:36.317Z,98462.69
2023-01-13T09:34:22.783Z,98475.97
2023-01-13T09:36:50.779Z,98452.75
2023-01-13T09:39:18.802Z,98450.72
2023-01-13T09:42:14.228Z,98453.63
2023-01-13T09:44:48.232Z,98459.81
2023-01-13T09:47:24.338Z,98464.38
2023-01-13T09:49:52.735Z,98475.06
2023-01-13T09:52:23.334Z,98467.41
2023-01-13T09:54:56.979Z,98471.06
2023-01-13T09:57:31.912Z,98473.66
2023-01-13T10:00:01.757Z,98474.59
2023-01-13T10:02:59.181Z,98488.06
2023-01-13T10:05:35.191Z,98473.06
2023-01-13T10:08:10.081Z,98461.22
2023-01-13T10:10:44.592Z,98466.09
2023-01-13T10:13:20.741Z,98464.28
2023-01-13T10:16:02.920Z,98463.88
2023-01-13T10:18:46.950Z,98467.50
2023-01-13T10:21:39.788Z,98444.34
2023-01-13T10:24:18.401Z,98460.97
2023-01-13T10:26:57.269Z,98454.94
2023-01-13T10:29:31.495Z,98448.84
2023-01-13T10:32:01.478Z,98456.13
2023-01-13T10:34:30.329Z,98469.06
2023-01-13T10:37:06.212Z,98468.84
2023-01-13T10:39:43.942Z,98459.25
2023-01-13T10:42:15.943Z,98466.31
2023-01-13T10:44:53.833Z,98481.19
2023-01-13T10:47:24.866Z,98478.13
2023-01-13T10:50:05.442Z,98481.19
2023-01-13T10:52:36.808Z,98491.50
2023-01-13T10:55:07.404Z,98497.78
2023-01-13T10:57:37.826Z,98492.72
2023-01-13T11:00:26.478Z,98477.53
2023-01-13T11:03:13.814Z,98475.94
2023-01-13T11:05:48.643Z,98485.22
2023-01-13T11:08:18.970Z,98464.19
2023-01-13T11:10:49.640Z,98479.81
2023-01-13T11:13:20.628Z,98494.56
2023-01-13T11:15:55.546Z,98484.13
2023-01-13T11:18:31.900Z,98474.97
2023-01-13T11:21:01.334Z,98477.28
2023-01-13T11:23:35.172Z,98483.97
2023-01-13T11:26:10.186Z,98491.41
2023-01-13T11:28:46.578Z,98487.13
2023-01-13T11:31:24.686Z,98497.16
2023-01-13T11:33:58.501Z,98505.06
2023-01-13T11:36:29.999Z,98514.88
2023-01-13T11:39:03.251Z,98506.44
2023-01-13T11:41:44.082Z,98504.16
2023-01-13T11:44:21.319Z,98508.78
2023-01-13T11:46:51.405Z,98498.91
2023-01-13T11:49:25.090Z,98500.38
2023-01-13T11:52:01.606Z,98502.66
2023-01-13T11:54:48.709Z,98488.13
2023-01-13T11:57:45.696Z,98496.25
2023-01-13T12:00:32.073Z,98473.16
2023-01-13T12:03:19.201Z,98464.38
2023-01-13T12:06:10.118Z,98448.00
2023-01-13T12:09:02.226Z,98453.41
2023-01-13T12:12:00.161Z,98458.81
2023-01-13T12:14:43.219Z,98459.41
2023-01-13T12:17:31.082Z,98479.03
2023-01-13T12:20:18.435Z,98497.19
2023-01-13T12:22:48.808Z,98503.25
2023-01-13T12:25:23.430Z,98503.19
2023-01-13T12:27:59.382Z,98516.72
2023-01-13T12:30:30.530Z,98519.03
2023-01-13T12:33:06.783Z,98522.09
2023-01-13T12:35:40.839Z,98528.28
2023-01-13T12:38:17.881Z,98530.19
2023-01-13T12:40:56.460Z,98538.22
2023-01-13T12:43:42.896Z,98540.25
2023-01-13T12:46:36.548Z,98622.09
2023-01-13T12:49:08.535Z,98658.81
2023-01-13T12:52:00.091Z,98638.53
2023-01-13T12:54:49.785Z,98615.22
2023-01-13T12:57:22.119Z,98641.19
2023-01-13T13:00:15.188Z,98634.13
2023-01-13T13:02:44.871Z,98594.31
2023-01-13T13:05:42.782Z,98551.91
2023-01-13T13:08:23.959Z,98525.44
2023-01-13T13:11:33.300Z,98520.16
2023-01-13T13:14:03.425Z,98507.56
2023-01-13T13:16:53.163Z,98516.84
2023-01-13T13:19:47.051Z,98525.28
2023-01-13T13:22:37.123Z,98516.09
2023-01-13T13:25:27.202Z,98520.09
2023-01-13T13:28:16.839Z,98504.16
2023-01-13T13:30:51.458Z,98502.31
2023-01-13T13:33:39.143Z,98490.66
2023-01-13T13:36:17.635Z,98518.34
2023-01-13T13:39:21.695Z,98650.31
2023-01-13T13:42:12.370Z,98633.88
2023-01-13T13:45:01.224Z,98646.22
2023-01-13T13:47:36.219Z,98564.41
2023-01-13T13:50:08.991Z,98550.41
2023-01-13T13:52:41.710Z,98578.47
2023-01-13T13:55:18.694Z,98598.47
2023-01-13T13:57:50.571Z,98612.50
2023-01-13T14:00:25.579Z,98616.47
2023-01-13T14:02:55.557Z,98616.63
2023-01-13T14:05:27.188Z,98636.63
2023-01-13T14:08:00.315Z,98652.59
2023-01-13T14:10:32.448Z,98659.34
2023-01-13T14:13:03.591Z,98637.84
2023-01-13T14:15:35.561Z,98638.25
2023-01-13T14:18:06.077Z,98624.28
2023-01-13T14:20:35.685Z,98627.03
2023-01-13T14:23:05.603Z,98615.38
2023-01-13T14:25:37.084Z,98614.19
2023-01-13T14:28:20.012Z,98606.34
2023-01-13T14:30:49.832Z,98613.34
2023-01-13T14:33:19.872Z,98613.44
2023-01-13T14:36:17.695Z,98626.00
2023-01-13T14:38:47.659Z,98632.72
2023-01-13T14:41:24.879Z,98634.91
2023-01-13T14:43:57.016Z,98631.59
2023-01-13T14:46:25.665Z,98618.44
2023-01-13T14:49:00.393Z,98623.31
2023-01-13T14:51:29.990Z,98640.34
2023-01-13T14:53:59.241Z,98638.63
2023-01-13T14:56:47.017Z,98645.78
2023-01-13T14:59:41.497Z,98645.06
2023-01-13T15:02:40.316Z,98647.69
2023-01-13T15:05:34.281Z,98653.28
2023-01-13T15:08:09.312Z,98674.25
2023-01-13T15:10:46.450Z,98672.91
2023-01-13T15:13:26.495Z,98662.47
2023-01-13T15:15:58.247Z,98681.94
2023-01-13T15:18:26.330Z,98667.63
2023-01-13T15:20:54.343Z,98671.00
2023-01-13T15:23:25.737Z,98676.72
2023-01-13T15:25:53.591Z,98676.69
2023-01-13T15:28:23.347Z,98680.34
2023-01-13T15:30:52.457Z,98684.38
2023-01-13T15:33:23.149Z,98698.94
2023-01-13T15:35:52.485Z,98696.41
2023-01-13T15:38:22.823Z,98710.47
2023-01-13T15:40:51.873Z,98702.22
2023-01-13T15:43:38.773Z,98705.38
2023-01-13T15:46:33.338Z,98700.59
2023-01-13T15:49:12.869Z,98719.53
2023-01-13T15:51:41.046Z,98735.16
2023-01-13T15:54:08.964Z,98729.88
2023-01-13T15:56:37.860Z,98728.19
2023-01-13T15:59:05.999Z,98746.16
2023-01-13T16:01:33.773Z,98747.25
2023-01-13T16:04:03.106Z,98735.44
2023-01-13T16:06:34.572Z,98737.03
2023-01-13T16:09:03.652Z,98759.31
2023-01-13T16:11:31.712Z,98753.66
2023-01-13T16:14:00.124Z,98749.03
2023-01-13T16:16:29.951Z,98758.44
2023-01-13T16:18:57.847Z,98758.88
2023-01-13T16:21:26.972Z,98768.38
2023-01-13T16:23:55.058Z,98763.16
2023-01-13T16:26:25.095Z,98767.13
2023-01-13T16:28:55.150Z,98759.16
2023-01-13T16:31:25.931Z,98764.38
2023-01-13T16:33:54.146Z,98761.50
2023-01-13T16:36:23.047Z,98760.72
2023-01-13T16:38:53.649Z,98773.19
2023-01-13T16:41:22.483Z,98765.50
2023-01-13T16:43:50.220Z,98773.00
2023-01-13T16:46:23.388Z,98776.53
2023-01-13T16:48:52.906Z,98775.25
2023-01-13T16:51:21.071Z,98791.06
2023-01-13T16:53:49.504Z,98792.16
2023-01-13T16:56:23.365Z,98783.16
2023-01-13T16:58:51.938Z,98782.00
2023-01-13T17:01:23.147Z,98804.41
2023-01-13T17:03:53.085Z,98810.66
2023-01-13T17:06:24.999Z,98812.78
2023-01-13T17:08:53.969Z,98806.63
2023-01-13T17:11:23.138Z,98820.50
2023-01-13T17:13:50.882Z,98821.28
2023-01-13T17:16:20.956Z,98828.03
2023-01-13T17:18:49.454Z,98834.84
2023-01-13T17:21:17.614Z,98828.59
2023-01-13T17:23:45.891Z,98833.34
2023-01-13T17:26:31.919Z,98830.34
2023-01-13T17:29:01.526Z,98833.25
2023-01-13T17:31:29.974Z,98834.47
2023-01-13T17:33:57.856Z,98840.72
2023-01-13T17:36:25.945Z,98839.97
2023-01-13T17:38:54.145Z,98838.19
2023-01-13T17:41:21.955Z,98836.34
2023-01-13T17:43:51.035Z,98844.22
2023-01-13T17:46:19.740Z,98835.00
2023-01-13T17:48:47.626Z,98844.34
2023-01-13T17:51:17.291Z,98852.84
2023-01-13T17:53:45.861Z,98857.13
2023-01-13T17:56:14.882Z,98859.25
2023-01-13T17:58:45.361Z,98870.81
2023-01-13T18:01:17.233Z,98861.88
2023-01-13T18:03:46.167Z,98863.88
2023-01-13T18:06:18.113Z,98864.75
2023-01-13T18:08:46.275Z,98877.25
2023-01-13T18:11:14.204Z,98877.50
2023-01-13T18:13:42.809Z,98883.97
2023-01-13T18:16:11.979Z,98892.25
2023-01-13T18:18:42.896Z,98886.91
2023-01-13T18:21:35.884Z,98890.19
2023-01-13T18:24:21.116Z,98892.81
2023-01-13T18:27:06.534Z,98897.91
2023-01-13T18:29:34.320Z,98896.69
2023-01-13T18:32:02.099Z,98899.75
2023-01-13T18:34:31.223Z,98910.84
2023-01-13T18:36:58.940Z,98914.16
2023-01-13T18:39:26.762Z,98920.91
2023-01-13T18:42:12.318Z,98912.09
2023-01-13T18:44:40.156Z,98923.50
2023-01-13T18:47:08.071Z,98928.88
2023-01-13T18:49:37.349Z,98926.63
2023-01-13T18:52:08.249Z,98940.13
2023-01-13T18:54:36.657Z,98938.31
2023-01-13T18:57:04.724Z,98959.16
2023-01-13T18:59:34.489Z,98967.53
2023-01-13T19:02:02.817Z,98952.28
2023-01-13T19:04:32.406Z,98955.53
2023-01-13T19:07:01.785Z,98962.81
2023-01-13T19:09:31.014Z,98957.81
2023-01-13T19:12:01.202Z,98966.69
2023-01-13T19:14:37.193Z,98965.72
2023-01-13T19:17:09.308Z,98973.75
2023-01-13T19:19:40.567Z,98987.91
2023-01-13T19:22:12.923Z,98981.66
2023-01-13T19:24:42.164Z,98995.03
2023-01-13T19:27:09.988Z,98984.56
2023-01-13T19:29:37.791Z,98996.81
2023-01-13T19:32:14.230Z,98988.25
2023-01-13T19:34:43.766Z,98992.56
2023-01-13T19:37:13.050Z,99004.84
2023-01-13T19:39:40.839Z,98999.97
2023-01-13T19:42:26.586Z,99015.63
2023-01-13T19:45:12.202Z,99016.28
2023-01-13T19:47:40.638Z,99004.50
2023-01-13T19:50:09.700Z,99005.97
2023-01-13T19:52:38.890Z,99019.13
2023-01-13T19:55:07.610Z,99019.28
2023-01-13T19:57:35.413Z,99041.84
2023-01-13T20:00:04.162Z,99037.66
2023-01-13T20:02:44.896Z,99037.34
2023-01-13T20:05:17.867Z,99032.34
2023-01-13T20:07:47.029Z,99036.34
2023-01-13T20:10:17.926Z,99032.16
2023-01-13T20:12:45.738Z,99042.16
2023-01-13T20:15:13.554Z,99037.50
2023-01-13T20:17:41.696Z,99067.59
2023-01-13T20:20:10.806Z,99050.41
2023-01-13T20:22:39.399Z,99068.91
2023-01-13T20:25:09.780Z,99051.19
2023-01-13T20:27:37.988Z,99055.56
2023-01-13T20:30:09.383Z,99052.81
2023-01-13T20:32:37.460Z,99054.13
2023-01-13T20:35:07.163Z,99065.06
2023-01-13T20:37:38.464Z,99060.22
2023-01-13T20:40:09.534Z,99082.25
2023-01-13T20:42:44.520Z,99080.47
2023-01-13T20:45:13.249Z,99079.03
2023-01-13T20:47:41.055Z,99078.38
2023-01-13T20:50:09.543Z,99082.91
2023-01-13T20:52:37.594Z,99097.22
2023-01-13T20:55:06.185Z,99084.50
2023-01-13T20:57:35.688Z,99083.38
2023-01-13T21:00:04.166Z,99089.97
2023-01-13T21:02:31.906Z,99082.09
2023-01-13T21:04:59.666Z,99085.78
2023-01-13T21:07:28.260Z,99089.00
2023-01-13T21:09:57.445Z,99095.44
2023-01-13T21:12:42.785Z,99105.41
2023-01-13T21:15:20.163Z,99087.56
2023-01-13T21:18:07.783Z,99086.09
2023-01-13T21:20:37.721Z,99096.25
2023-01-13T21:23:05.877Z,99090.78
2023-01-13T21:25:35.398Z,99095.13
2023-01-13T21:28:07.629Z,99108.47
2023-01-13T21:30:38.267Z,99104.13
2023-01-13T21:33:06.390Z,99108.47
2023-01-13T21:35:34.473Z,99127.13
2023-01-13T21:38:02.274Z,99112.19
2023-01-13T21:40:30.053Z,99110.69
2023-01-13T21:43:15.166Z,99115.88
2023-01-13T21:46:02.924Z,99120.38
2023-01-13T21:48:32.098Z,99125.50
2023-01-13T21:51:01.428Z,99133.22
2023-01-13T21:53:29.180Z,99134.81
2023-01-13T21:55:57.039Z,99132.09
2023-01-13T21:58:24.873Z,99137.72
2023-01-13T22:00:54.085Z,99144.00
2023-01-13T22:03:22.009Z,99136.78
2023-01-13T22:05:55.452Z,99144.66
2023-01-13T22:08:23.331Z,99143.53
2023-01-13T22:10:58.520Z,99145.47
2023-01-13T22:13:44.462Z,99151.41
2023-01-13T22:16:13.686Z,99146.44
2023-01-13T22:18:41.568Z,99147.56
2023-01-13T22:21:09.560Z,99146.28
2023-01-13T22:23:37.636Z,99149.19
2023-01-13T22:26:06.714Z,99154.47
2023-01-13T22:28:40.729Z,99164.44
2023-01-13T22:31:09.298Z,99164.13
2023-01-13T22:33:39.076Z,99164.44
2023-01-13T22:36:08.590Z,99156.41
2023-01-13T22:38:36.905Z,99158.03
2023-01-13T22:41:07.237Z,99160.91
2023-01-13T22:43:36.215Z,99167.03
2023-01-13T22:46:07.354Z,99159.63
2023-01-13T22:48:35.710Z,99156.75
2023-01-13T22:51:09.691Z,99156.41
2023-01-13T22:53:38.646Z,99152.88
2023-01-13T22:56:07.479Z,99163.81
2023-01-13T22:58:35.368Z,99147.22
2023-01-13T23:01:10.805Z,99152.69
2023-01-13T23:03:38.961Z,99163.91
2023-01-13T23:06:08.185Z,99172.59
2023-01-13T23:08:36.440Z,99170.34
2023-01-13T23:11:05.876Z,99178.69
2023-01-13T23:13:34.288Z,99180.81
2023-01-13T23:16:07.706Z,99175.97
2023-01-13T23:18:35.548Z,99170.53
2023-01-13T23:21:04.809Z,99166.84
2023-01-13T23:23:35.268Z,99158.00
2023-01-13T23:26:03.513Z,99167.00
2023-01-13T23:28:31.982Z,99162.19
2023-01-13T23:30:59.876Z,99173.09
2023-01-13T23:33:27.905Z,99165.53
2023-01-13T23:35:59.555Z,99162.50
2023-01-13T23:38:27.330Z,99162.34
2023-01-13T23:40:56.918Z,99154.16
2023-01-13T23:43:26.285Z,99159.75
2023-01-13T23:45:54.482Z,99167.47
2023-01-13T23:48:22.700Z,99165.69
2023-01-13T23:50:58.205Z,99180.94
2023-01-13T23:53:30.945Z,99175.41
2023-01-13T23:56:00.840Z,99175.09
2023-01-13T23:58:29.731Z,99167.41
